sensor_id;sensor_type;location;lat;lon;timestamp;P1;durP1;ratioP1;P2;durP2;ratioP2
8803;SDS011;4438;50.890;4.726;2023-10-31T00:00:00;14.73;;;11.90;;
8803;SDS011;4438;50.890;4.726;2023-10-31T00:02:28;16.13;;;11.77;;
8803;SDS011;4438;50.890;4.726;2023-10-31T00:04:54;16.30;;;12.40;;
8803;SDS011;4438;50.890;4.726;2023-10-31T00:07:20;14.60;;;11.80;;
8803;SDS011;4438;50.890;4.726;2023-10-31T00:09:47;15.67;;;12.57;;
8803;SDS011;4438;50.890;4.726;2023-10-31T00:12:13;16.73;;;12.73;;
8803;SDS011;4438;50.890;4.726;2023-10-31T00:14:39;16.53;;;12.90;;
8803;SDS011;4438;50.890;4.726;2023-10-31T00:17:05;19.07;;;12.40;;
8803;SDS011;4438;50.890;4.726;2023-10-31T00:19:31;16.50;;;13.33;;
8803;SDS011;4438;50.890;4.726;2023-10-31T00:21:57;17.57;;;13.57;;
8803;SDS011;4438;50.890;4.726;2023-10-31T00:24:23;16.53;;;13.57;;
8803;SDS011;4438;50.890;4.726;2023-10-31T00:26:49;18.30;;;13.47;;
8803;SDS011;4438;50.890;4.726;2023-10-31T00:29:15;18.80;;;13.63;;
8803;SDS011;4438;50.890;4.726;2023-10-31T00:31:42;15.37;;;12.67;;
8803;SDS011;4438;50.890;4.726;2023-10-31T00:34:08;14.00;;;12.50;;
8803;SDS011;4438;50.890;4.726;2023-10-31T00:36:35;15.27;;;12.97;;
8803;SDS011;4438;50.890;4.726;2023-10-31T00:39:01;15.07;;;11.93;;
8803;SDS011;4438;50.890;4.726;2023-10-31T00:41:27;16.40;;;12.53;;
8803;SDS011;4438;50.890;4.726;2023-10-31T00:43:54;14.23;;;12.73;;
8803;SDS011;4438;50.890;4.726;2023-10-31T00:46:20;13.90;;;12.03;;
8803;SDS011;4438;50.890;4.726;2023-10-31T00:48:46;15.43;;;12.70;;
8803;SDS011;4438;50.890;4.726;2023-10-31T00:51:13;14.37;;;12.40;;
8803;SDS011;4438;50.890;4.726;2023-10-31T00:53:39;13.63;;;11.30;;
8803;SDS011;4438;50.890;4.726;2023-10-31T00:56:05;12.70;;;11.40;;
8803;SDS011;4438;50.890;4.726;2023-10-31T00:58:32;14.77;;;11.63;;
8803;SDS011;4438;50.890;4.726;2023-10-31T01:00:58;13.37;;;11.47;;
8803;SDS011;4438;50.890;4.726;2023-10-31T01:03:24;14.43;;;10.63;;
8803;SDS011;4438;50.890;4.726;2023-10-31T01:05:51;13.43;;;11.37;;
8803;SDS011;4438;50.890;4.726;2023-10-31T01:08:17;10.73;;;9.63;;
8803;SDS011;4438;50.890;4.726;2023-10-31T01:10:43;11.23;;;9.97;;
8803;SDS011;4438;50.890;4.726;2023-10-31T01:13:09;11.27;;;9.67;;
8803;SDS011;4438;50.890;4.726;2023-10-31T01:15:35;11.30;;;9.87;;
8803;SDS011;4438;50.890;4.726;2023-10-31T01:18:01;10.97;;;9.50;;
8803;SDS011;4438;50.890;4.726;2023-10-31T01:20:27;11.73;;;10.47;;
8803;SDS011;4438;50.890;4.726;2023-10-31T01:22:53;11.50;;;9.43;;
8803;SDS011;4438;50.890;4.726;2023-10-31T01:25:19;11.73;;;9.50;;
8803;SDS011;4438;50.890;4.726;2023-10-31T01:27:45;10.47;;;8.80;;
8803;SDS011;4438;50.890;4.726;2023-10-31T01:30:11;10.37;;;8.27;;
8803;SDS011;4438;50.890;4.726;2023-10-31T01:32:38;11.70;;;8.70;;
8803;SDS011;4438;50.890;4.726;2023-10-31T01:35:04;10.03;;;8.83;;
8803;SDS011;4438;50.890;4.726;2023-10-31T01:37:31;9.77;;;8.27;;
8803;SDS011;4438;50.890;4.726;2023-10-31T01:39:57;10.83;;;8.73;;
8803;SDS011;4438;50.890;4.726;2023-10-31T01:42:23;14.60;;;9.50;;
8803;SDS011;4438;50.890;4.726;2023-10-31T01:44:49;10.57;;;8.53;;
8803;SDS011;4438;50.890;4.726;2023-10-31T01:47:15;10.90;;;8.47;;
8803;SDS011;4438;50.890;4.726;2023-10-31T01:49:41;10.60;;;8.03;;
8803;SDS011;4438;50.890;4.726;2023-10-31T01:52:08;11.07;;;8.43;;
8803;SDS011;4438;50.890;4.726;2023-10-31T01:54:34;8.73;;;7.43;;
8803;SDS011;4438;50.890;4.726;2023-10-31T01:57:00;9.20;;;8.20;;
8803;SDS011;4438;50.890;4.726;2023-10-31T01:59:27;8.30;;;7.40;;
8803;SDS011;4438;50.890;4.726;2023-10-31T02:01:54;9.60;;;7.87;;
8803;SDS011;4438;50.890;4.726;2023-10-31T02:04:21;11.13;;;8.47;;
8803;SDS011;4438;50.890;4.726;2023-10-31T02:06:47;8.90;;;7.80;;
8803;SDS011;4438;50.890;4.726;2023-10-31T02:09:13;8.37;;;7.57;;
8803;SDS011;4438;50.890;4.726;2023-10-31T02:11:40;10.33;;;7.37;;
8803;SDS011;4438;50.890;4.726;2023-10-31T02:14:06;8.37;;;7.47;;
8803;SDS011;4438;50.890;4.726;2023-10-31T02:16:32;8.10;;;7.03;;
8803;SDS011;4438;50.890;4.726;2023-10-31T02:18:58;7.03;;;6.43;;
8803;SDS011;4438;50.890;4.726;2023-10-31T02:21:24;7.27;;;6.57;;
8803;SDS011;4438;50.890;4.726;2023-10-31T02:24:03;7.83;;;6.30;;
8803;SDS011;4438;50.890;4.726;2023-10-31T02:26:33;6.60;;;6.00;;
8803;SDS011;4438;50.890;4.726;2023-10-31T02:29:00;6.93;;;6.20;;
8803;SDS011;4438;50.890;4.726;2023-10-31T02:31:26;7.27;;;6.33;;
8803;SDS011;4438;50.890;4.726;2023-10-31T02:33:52;6.53;;;5.87;;
8803;SDS011;4438;50.890;4.726;2023-10-31T02:36:18;7.83;;;6.57;;
8803;SDS011;4438;50.890;4.726;2023-10-31T02:38:45;7.97;;;5.90;;
8803;SDS011;4438;50.890;4.726;2023-10-31T02:41:11;6.57;;;5.80;;
8803;SDS011;4438;50.890;4.726;2023-10-31T02:43:40;6.50;;;5.87;;
8803;SDS011;4438;50.890;4.726;2023-10-31T02:46:07;6.00;;;5.47;;
8803;SDS011;4438;50.890;4.726;2023-10-31T02:48:33;7.10;;;5.90;;
8803;SDS011;4438;50.890;4.726;2023-10-31T02:51:07;5.97;;;5.37;;
8803;SDS011;4438;50.890;4.726;2023-10-31T02:53:33;6.53;;;5.93;;
8803;SDS011;4438;50.890;4.726;2023-10-31T02:56:00;7.57;;;5.73;;
8803;SDS011;4438;50.890;4.726;2023-10-31T02:58:26;6.67;;;5.97;;
8803;SDS011;4438;50.890;4.726;2023-10-31T03:00:52;6.13;;;5.63;;
8803;SDS011;4438;50.890;4.726;2023-10-31T03:03:18;5.93;;;5.23;;
8803;SDS011;4438;50.890;4.726;2023-10-31T03:05:45;6.07;;;5.57;;
8803;SDS011;4438;50.890;4.726;2023-10-31T03:08:11;7.43;;;5.60;;
8803;SDS011;4438;50.890;4.726;2023-10-31T03:10:38;6.47;;;5.87;;
8803;SDS011;4438;50.890;4.726;2023-10-31T03:13:04;6.37;;;5.83;;
8803;SDS011;4438;50.890;4.726;2023-10-31T03:15:30;6.17;;;5.63;;
8803;SDS011;4438;50.890;4.726;2023-10-31T03:17:56;6.23;;;5.63;;
8803;SDS011;4438;50.890;4.726;2023-10-31T03:20:23;6.27;;;5.67;;
8803;SDS011;4438;50.890;4.726;2023-10-31T03:22:49;6.63;;;5.93;;
8803;SDS011;4438;50.890;4.726;2023-10-31T03:25:15;6.70;;;5.87;;
8803;SDS011;4438;50.890;4.726;2023-10-31T03:27:41;6.30;;;5.80;;
8803;SDS011;4438;50.890;4.726;2023-10-31T03:30:07;6.03;;;5.53;;
8803;SDS011;4438;50.890;4.726;2023-10-31T03:32:34;6.17;;;5.37;;
8803;SDS011;4438;50.890;4.726;2023-10-31T03:35:00;6.03;;;5.53;;
8803;SDS011;4438;50.890;4.726;2023-10-31T03:37:26;6.30;;;5.63;;
8803;SDS011;4438;50.890;4.726;2023-10-31T03:39:52;6.00;;;5.40;;
8803;SDS011;4438;50.890;4.726;2023-10-31T03:42:18;6.20;;;5.60;;
8803;SDS011;4438;50.890;4.726;2023-10-31T03:44:45;6.43;;;5.83;;
8803;SDS011;4438;50.890;4.726;2023-10-31T03:47:11;6.80;;;5.93;;
8803;SDS011;4438;50.890;4.726;2023-10-31T03:49:40;6.70;;;6.10;;
8803;SDS011;4438;50.890;4.726;2023-10-31T03:52:06;6.90;;;6.30;;
8803;SDS011;4438;50.890;4.726;2023-10-31T03:54:32;6.60;;;6.10;;
8803;SDS011;4438;50.890;4.726;2023-10-31T03:56:58;6.90;;;6.20;;
8803;SDS011;4438;50.890;4.726;2023-10-31T03:59:24;7.67;;;7.07;;
8803;SDS011;4438;50.890;4.726;2023-10-31T04:01:50;7.40;;;6.70;;
8803;SDS011;4438;50.890;4.726;2023-10-31T04:04:17;7.10;;;6.40;;
8803;SDS011;4438;50.890;4.726;2023-10-31T04:06:43;7.83;;;7.03;;
8803;SDS011;4438;50.890;4.726;2023-10-31T04:09:09;7.73;;;7.03;;
8803;SDS011;4438;50.890;4.726;2023-10-31T04:11:35;7.27;;;6.67;;
8803;SDS011;4438;50.890;4.726;2023-10-31T04:14:01;6.97;;;6.47;;
8803;SDS011;4438;50.890;4.726;2023-10-31T04:16:28;7.30;;;6.70;;
8803;SDS011;4438;50.890;4.726;2023-10-31T04:18:54;7.40;;;6.63;;
8803;SDS011;4438;50.890;4.726;2023-10-31T04:21:20;7.57;;;6.73;;
8803;SDS011;4438;50.890;4.726;2023-10-31T04:23:46;9.03;;;7.10;;
8803;SDS011;4438;50.890;4.726;2023-10-31T04:26:12;6.87;;;6.27;;
8803;SDS011;4438;50.890;4.726;2023-10-31T04:28:38;7.60;;;6.80;;
8803;SDS011;4438;50.890;4.726;2023-10-31T04:31:04;7.30;;;6.60;;
8803;SDS011;4438;50.890;4.726;2023-10-31T04:33:30;7.50;;;6.80;;
8803;SDS011;4438;50.890;4.726;2023-10-31T04:35:56;7.50;;;6.73;;
8803;SDS011;4438;50.890;4.726;2023-10-31T04:38:23;8.47;;;7.53;;
8803;SDS011;4438;50.890;4.726;2023-10-31T04:40:49;7.13;;;6.53;;
8803;SDS011;4438;50.890;4.726;2023-10-31T04:43:15;7.53;;;6.83;;
8803;SDS011;4438;50.890;4.726;2023-10-31T04:45:41;7.90;;;7.10;;
8803;SDS011;4438;50.890;4.726;2023-10-31T04:48:07;8.10;;;7.40;;
8803;SDS011;4438;50.890;4.726;2023-10-31T04:50:33;7.73;;;7.10;;
8803;SDS011;4438;50.890;4.726;2023-10-31T04:52:59;7.40;;;6.80;;
8803;SDS011;4438;50.890;4.726;2023-10-31T04:55:25;7.40;;;6.70;;
8803;SDS011;4438;50.890;4.726;2023-10-31T04:57:51;8.63;;;7.83;;
8803;SDS011;4438;50.890;4.726;2023-10-31T05:00:17;8.10;;;7.20;;
8803;SDS011;4438;50.890;4.726;2023-10-31T05:02:43;8.00;;;7.30;;
8803;SDS011;4438;50.890;4.726;2023-10-31T05:05:09;7.60;;;6.80;;
8803;SDS011;4438;50.890;4.726;2023-10-31T05:07:35;8.83;;;8.03;;
8803;SDS011;4438;50.890;4.726;2023-10-31T05:10:02;9.93;;;7.73;;
8803;SDS011;4438;50.890;4.726;2023-10-31T05:12:28;8.93;;;8.13;;
8803;SDS011;4438;50.890;4.726;2023-10-31T05:14:54;9.47;;;8.57;;
8803;SDS011;4438;50.890;4.726;2023-10-31T05:17:20;8.80;;;7.90;;
8803;SDS011;4438;50.890;4.726;2023-10-31T05:19:46;9.53;;;8.53;;
8803;SDS011;4438;50.890;4.726;2023-10-31T05:22:13;9.07;;;8.23;;
8803;SDS011;4438;50.890;4.726;2023-10-31T05:24:39;10.17;;;8.93;;
8803;SDS011;4438;50.890;4.726;2023-10-31T05:27:05;10.13;;;9.13;;
8803;SDS011;4438;50.890;4.726;2023-10-31T05:29:33;11.10;;;9.60;;
8803;SDS011;4438;50.890;4.726;2023-10-31T05:31:59;10.90;;;9.80;;
8803;SDS011;4438;50.890;4.726;2023-10-31T05:34:26;11.40;;;10.30;;
8803;SDS011;4438;50.890;4.726;2023-10-31T05:36:52;10.73;;;9.70;;
8803;SDS011;4438;50.890;4.726;2023-10-31T05:39:18;10.57;;;9.57;;
8803;SDS011;4438;50.890;4.726;2023-10-31T05:41:44;10.63;;;9.57;;
8803;SDS011;4438;50.890;4.726;2023-10-31T05:44:10;10.73;;;9.73;;
8803;SDS011;4438;50.890;4.726;2023-10-31T05:46:39;12.87;;;10.27;;
8803;SDS011;4438;50.890;4.726;2023-10-31T05:49:06;11.60;;;9.90;;
8803;SDS011;4438;50.890;4.726;2023-10-31T05:51:32;11.13;;;10.03;;
8803;SDS011;4438;50.890;4.726;2023-10-31T05:54:00;12.20;;;10.40;;
8803;SDS011;4438;50.890;4.726;2023-10-31T05:56:26;10.07;;;9.07;;
8803;SDS011;4438;50.890;4.726;2023-10-31T05:58:52;10.87;;;9.77;;
8803;SDS011;4438;50.890;4.726;2023-10-31T06:01:19;12.07;;;10.50;;
8803;SDS011;4438;50.890;4.726;2023-10-31T06:03:45;11.00;;;9.90;;
8803;SDS011;4438;50.890;4.726;2023-10-31T06:06:11;10.63;;;9.63;;
8803;SDS011;4438;50.890;4.726;2023-10-31T06:08:40;10.37;;;9.37;;
8803;SDS011;4438;50.890;4.726;2023-10-31T06:11:07;11.27;;;10.17;;
8803;SDS011;4438;50.890;4.726;2023-10-31T06:13:33;10.23;;;9.23;;
8803;SDS011;4438;50.890;4.726;2023-10-31T06:16:00;11.60;;;10.50;;
8803;SDS011;4438;50.890;4.726;2023-10-31T06:18:26;10.27;;;9.27;;
8803;SDS011;4438;50.890;4.726;2023-10-31T06:20:53;10.67;;;9.57;;
8803;SDS011;4438;50.890;4.726;2023-10-31T06:23:19;10.73;;;9.43;;
8803;SDS011;4438;50.890;4.726;2023-10-31T06:25:45;9.93;;;8.93;;
8803;SDS011;4438;50.890;4.726;2023-10-31T06:28:11;9.40;;;8.50;;
8803;SDS011;4438;50.890;4.726;2023-10-31T06:30:37;9.90;;;8.90;;
8803;SDS011;4438;50.890;4.726;2023-10-31T06:33:03;10.10;;;9.10;;
8803;SDS011;4438;50.890;4.726;2023-10-31T06:35:29;10.17;;;9.13;;
8803;SDS011;4438;50.890;4.726;2023-10-31T06:37:56;10.50;;;9.40;;
8803;SDS011;4438;50.890;4.726;2023-10-31T06:40:23;10.03;;;9.03;;
8803;SDS011;4438;50.890;4.726;2023-10-31T06:42:49;12.07;;;8.67;;
8803;SDS011;4438;50.890;4.726;2023-10-31T06:45:15;9.53;;;8.63;;
8803;SDS011;4438;50.890;4.726;2023-10-31T06:47:41;9.80;;;8.80;;
8803;SDS011;4438;50.890;4.726;2023-10-31T06:50:08;9.97;;;8.93;;
8803;SDS011;4438;50.890;4.726;2023-10-31T06:52:34;9.67;;;8.33;;
8803;SDS011;4438;50.890;4.726;2023-10-31T06:55:00;10.00;;;9.10;;
8803;SDS011;4438;50.890;4.726;2023-10-31T06:57:26;9.37;;;8.43;;
8803;SDS011;4438;50.890;4.726;2023-10-31T06:59:52;10.10;;;9.13;;
8803;SDS011;4438;50.890;4.726;2023-10-31T07:02:18;9.80;;;8.77;;
8803;SDS011;4438;50.890;4.726;2023-10-31T07:04:44;9.43;;;8.53;;
8803;SDS011;4438;50.890;4.726;2023-10-31T07:07:10;9.53;;;8.53;;
8803;SDS011;4438;50.890;4.726;2023-10-31T07:09:37;9.40;;;8.50;;
8803;SDS011;4438;50.890;4.726;2023-10-31T07:12:03;8.93;;;8.03;;
8803;SDS011;4438;50.890;4.726;2023-10-31T07:14:29;10.07;;;8.10;;
8803;SDS011;4438;50.890;4.726;2023-10-31T07:16:56;8.90;;;7.80;;
8803;SDS011;4438;50.890;4.726;2023-10-31T07:19:22;9.20;;;8.23;;
8803;SDS011;4438;50.890;4.726;2023-10-31T07:21:48;10.40;;;7.47;;
8803;SDS011;4438;50.890;4.726;2023-10-31T07:24:14;8.27;;;7.50;;
8803;SDS011;4438;50.890;4.726;2023-10-31T07:26:40;8.30;;;7.50;;
8803;SDS011;4438;50.890;4.726;2023-10-31T07:29:06;9.20;;;7.10;;
8803;SDS011;4438;50.890;4.726;2023-10-31T07:31:33;8.30;;;7.17;;
8803;SDS011;4438;50.890;4.726;2023-10-31T07:34:03;8.50;;;7.20;;
8803;SDS011;4438;50.890;4.726;2023-10-31T07:36:30;9.73;;;7.63;;
8803;SDS011;4438;50.890;4.726;2023-10-31T07:38:57;8.37;;;7.47;;
8803;SDS011;4438;50.890;4.726;2023-10-31T07:41:23;8.03;;;7.23;;
8803;SDS011;4438;50.890;4.726;2023-10-31T07:43:49;8.87;;;8.03;;
8803;SDS011;4438;50.890;4.726;2023-10-31T07:46:16;7.57;;;6.77;;
8803;SDS011;4438;50.890;4.726;2023-10-31T07:48:42;9.47;;;7.60;;
8803;SDS011;4438;50.890;4.726;2023-10-31T07:51:08;7.80;;;7.07;;
8803;SDS011;4438;50.890;4.726;2023-10-31T07:53:34;7.77;;;7.00;;
8803;SDS011;4438;50.890;4.726;2023-10-31T07:56:00;7.73;;;6.93;;
8803;SDS011;4438;50.890;4.726;2023-10-31T07:58:26;10.37;;;7.93;;
8803;SDS011;4438;50.890;4.726;2023-10-31T08:00:52;8.20;;;7.40;;
8803;SDS011;4438;50.890;4.726;2023-10-31T08:03:18;8.27;;;7.47;;
8803;SDS011;4438;50.890;4.726;2023-10-31T08:05:44;8.10;;;7.30;;
8803;SDS011;4438;50.890;4.726;2023-10-31T08:08:10;8.47;;;7.67;;
8803;SDS011;4438;50.890;4.726;2023-10-31T08:10:36;8.30;;;6.87;;
8803;SDS011;4438;50.890;4.726;2023-10-31T08:13:02;7.80;;;7.00;;
8803;SDS011;4438;50.890;4.726;2023-10-31T08:15:28;8.93;;;7.83;;
8803;SDS011;4438;50.890;4.726;2023-10-31T08:17:54;7.90;;;7.20;;
8803;SDS011;4438;50.890;4.726;2023-10-31T08:20:20;7.40;;;6.70;;
8803;SDS011;4438;50.890;4.726;2023-10-31T08:22:46;7.73;;;6.97;;
8803;SDS011;4438;50.890;4.726;2023-10-31T08:25:12;7.70;;;6.90;;
8803;SDS011;4438;50.890;4.726;2023-10-31T08:27:39;8.20;;;7.40;;
8803;SDS011;4438;50.890;4.726;2023-10-31T08:30:05;8.10;;;7.30;;
8803;SDS011;4438;50.890;4.726;2023-10-31T08:32:31;9.70;;;6.87;;
8803;SDS011;4438;50.890;4.726;2023-10-31T08:34:57;8.20;;;6.43;;
8803;SDS011;4438;50.890;4.726;2023-10-31T08:37:24;7.30;;;6.60;;
8803;SDS011;4438;50.890;4.726;2023-10-31T08:39:50;7.20;;;6.60;;
8803;SDS011;4438;50.890;4.726;2023-10-31T08:42:16;8.80;;;6.63;;
8803;SDS011;4438;50.890;4.726;2023-10-31T08:44:42;7.33;;;6.50;;
8803;SDS011;4438;50.890;4.726;2023-10-31T08:47:08;6.23;;;5.63;;
8803;SDS011;4438;50.890;4.726;2023-10-31T08:49:34;9.20;;;6.80;;
8803;SDS011;4438;50.890;4.726;2023-10-31T08:52:01;6.90;;;6.20;;
8803;SDS011;4438;50.890;4.726;2023-10-31T08:54:29;6.93;;;6.23;;
8803;SDS011;4438;50.890;4.726;2023-10-31T08:56:55;9.07;;;6.30;;
8803;SDS011;4438;50.890;4.726;2023-10-31T08:59:21;7.77;;;6.60;;
8803;SDS011;4438;50.890;4.726;2023-10-31T09:01:47;7.00;;;6.13;;
8803;SDS011;4438;50.890;4.726;2023-10-31T09:04:13;8.33;;;6.23;;
8803;SDS011;4438;50.890;4.726;2023-10-31T09:06:39;6.67;;;5.90;;
8803;SDS011;4438;50.890;4.726;2023-10-31T09:09:05;7.13;;;5.83;;
8803;SDS011;4438;50.890;4.726;2023-10-31T09:11:31;6.93;;;6.23;;
8803;SDS011;4438;50.890;4.726;2023-10-31T09:13:57;7.20;;;6.50;;
8803;SDS011;4438;50.890;4.726;2023-10-31T09:16:23;8.37;;;7.13;;
8803;SDS011;4438;50.890;4.726;2023-10-31T09:18:49;8.27;;;6.73;;
8803;SDS011;4438;50.890;4.726;2023-10-31T09:21:17;8.80;;;6.60;;
8803;SDS011;4438;50.890;4.726;2023-10-31T09:23:43;54.57;;;14.23;;
8803;SDS011;4438;50.890;4.726;2023-10-31T09:26:09;11.60;;;7.40;;
8803;SDS011;4438;50.890;4.726;2023-10-31T09:28:35;11.03;;;6.80;;
8803;SDS011;4438;50.890;4.726;2023-10-31T09:31:04;7.67;;;6.57;;
8803;SDS011;4438;50.890;4.726;2023-10-31T09:33:30;8.30;;;6.73;;
8803;SDS011;4438;50.890;4.726;2023-10-31T09:35:56;8.27;;;6.00;;
8803;SDS011;4438;50.890;4.726;2023-10-31T09:38:22;7.80;;;5.47;;
8803;SDS011;4438;50.890;4.726;2023-10-31T09:40:49;5.77;;;5.10;;
8803;SDS011;4438;50.890;4.726;2023-10-31T09:43:15;8.17;;;5.53;;
8803;SDS011;4438;50.890;4.726;2023-10-31T09:45:42;5.63;;;4.50;;
8803;SDS011;4438;50.890;4.726;2023-10-31T09:48:08;7.47;;;4.97;;
8803;SDS011;4438;50.890;4.726;2023-10-31T09:50:34;4.93;;;4.30;;
8803;SDS011;4438;50.890;4.726;2023-10-31T09:53:00;5.17;;;4.60;;
8803;SDS011;4438;50.890;4.726;2023-10-31T09:55:27;6.73;;;4.47;;
8803;SDS011;4438;50.890;4.726;2023-10-31T09:57:53;5.33;;;4.60;;
8803;SDS011;4438;50.890;4.726;2023-10-31T10:00:20;5.53;;;4.70;;
8803;SDS011;4438;50.890;4.726;2023-10-31T10:02:46;7.17;;;4.70;;
8803;SDS011;4438;50.890;4.726;2023-10-31T10:05:12;5.27;;;4.13;;
8803;SDS011;4438;50.890;4.726;2023-10-31T10:07:40;7.83;;;4.20;;
8803;SDS011;4438;50.890;4.726;2023-10-31T10:10:11;6.43;;;4.20;;
8803;SDS011;4438;50.890;4.726;2023-10-31T10:12:38;8.57;;;4.27;;
8803;SDS011;4438;50.890;4.726;2023-10-31T10:15:07;7.03;;;3.93;;
8803;SDS011;4438;50.890;4.726;2023-10-31T10:17:33;6.50;;;4.23;;
8803;SDS011;4438;50.890;4.726;2023-10-31T10:20:06;8.27;;;3.90;;
8803;SDS011;4438;50.890;4.726;2023-10-31T10:22:36;6.50;;;3.90;;
8803;SDS011;4438;50.890;4.726;2023-10-31T10:25:03;7.47;;;3.70;;
8803;SDS011;4438;50.890;4.726;2023-10-31T10:27:30;4.13;;;3.60;;
8803;SDS011;4438;50.890;4.726;2023-10-31T10:29:56;4.97;;;3.40;;
8803;SDS011;4438;50.890;4.726;2023-10-31T10:32:22;6.50;;;4.00;;
8803;SDS011;4438;50.890;4.726;2023-10-31T10:34:48;5.00;;;3.77;;
8803;SDS011;4438;50.890;4.726;2023-10-31T10:37:14;6.37;;;4.23;;
8803;SDS011;4438;50.890;4.726;2023-10-31T10:39:42;7.73;;;4.57;;
8803;SDS011;4438;50.890;4.726;2023-10-31T10:42:12;6.43;;;4.27;;
8803;SDS011;4438;50.890;4.726;2023-10-31T10:44:42;7.10;;;4.27;;
8803;SDS011;4438;50.890;4.726;2023-10-31T10:47:09;5.53;;;4.00;;
8803;SDS011;4438;50.890;4.726;2023-10-31T10:49:37;6.47;;;4.47;;
8803;SDS011;4438;50.890;4.726;2023-10-31T10:52:23;4.83;;;4.10;;
8803;SDS011;4438;50.890;4.726;2023-10-31T10:55:03;7.70;;;4.57;;
8803;SDS011;4438;50.890;4.726;2023-10-31T10:59:55;6.13;;;4.10;;
8803;SDS011;4438;50.890;4.726;2023-10-31T11:02:25;6.03;;;4.60;;
8803;SDS011;4438;50.890;4.726;2023-10-31T11:04:52;6.30;;;4.53;;
8803;SDS011;4438;50.890;4.726;2023-10-31T11:07:18;7.00;;;4.80;;
8803;SDS011;4438;50.890;4.726;2023-10-31T11:09:47;5.73;;;4.03;;
8803;SDS011;4438;50.890;4.726;2023-10-31T11:12:14;5.93;;;3.90;;
8803;SDS011;4438;50.890;4.726;2023-10-31T11:14:41;5.87;;;4.20;;
8803;SDS011;4438;50.890;4.726;2023-10-31T11:17:16;6.93;;;4.30;;
8803;SDS011;4438;50.890;4.726;2023-10-31T11:19:46;6.60;;;4.50;;
8803;SDS011;4438;50.890;4.726;2023-10-31T11:22:12;6.57;;;4.53;;
8803;SDS011;4438;50.890;4.726;2023-10-31T11:24:38;7.07;;;4.80;;
8803;SDS011;4438;50.890;4.726;2023-10-31T11:27:06;7.03;;;4.80;;
8803;SDS011;4438;50.890;4.726;2023-10-31T11:29:32;6.47;;;4.83;;
8803;SDS011;4438;50.890;4.726;2023-10-31T11:31:59;6.97;;;4.73;;
8803;SDS011;4438;50.890;4.726;2023-10-31T11:34:29;8.80;;;5.63;;
8803;SDS011;4438;50.890;4.726;2023-10-31T11:39:40;7.47;;;4.87;;
8803;SDS011;4438;50.890;4.726;2023-10-31T11:42:06;5.83;;;5.03;;
8803;SDS011;4438;50.890;4.726;2023-10-31T11:44:55;5.00;;;4.57;;
8803;SDS011;4438;50.890;4.726;2023-10-31T11:47:22;6.13;;;4.57;;
8803;SDS011;4438;50.890;4.726;2023-10-31T11:49:48;6.93;;;4.50;;
8803;SDS011;4438;50.890;4.726;2023-10-31T11:52:17;7.63;;;4.93;;
8803;SDS011;4438;50.890;4.726;2023-10-31T11:54:43;7.67;;;4.90;;
8803;SDS011;4438;50.890;4.726;2023-10-31T11:57:10;8.30;;;5.00;;
8803;SDS011;4438;50.890;4.726;2023-10-31T11:59:39;6.10;;;4.43;;
8803;SDS011;4438;50.890;4.726;2023-10-31T12:02:15;5.83;;;4.27;;
8803;SDS011;4438;50.890;4.726;2023-10-31T12:04:41;8.00;;;5.00;;
8803;SDS011;4438;50.890;4.726;2023-10-31T12:07:08;7.93;;;5.37;;
8803;SDS011;4438;50.890;4.726;2023-10-31T12:09:45;7.67;;;5.43;;
8803;SDS011;4438;50.890;4.726;2023-10-31T12:12:11;5.43;;;4.90;;
8803;SDS011;4438;50.890;4.726;2023-10-31T12:14:37;6.90;;;5.63;;
8803;SDS011;4438;50.890;4.726;2023-10-31T12:17:03;9.10;;;5.77;;
8803;SDS011;4438;50.890;4.726;2023-10-31T12:19:30;8.93;;;5.97;;
8803;SDS011;4438;50.890;4.726;2023-10-31T12:21:57;7.00;;;5.03;;
8803;SDS011;4438;50.890;4.726;2023-10-31T12:24:23;8.33;;;5.83;;
8803;SDS011;4438;50.890;4.726;2023-10-31T12:26:49;8.03;;;5.87;;
8803;SDS011;4438;50.890;4.726;2023-10-31T12:29:17;8.03;;;5.30;;
8803;SDS011;4438;50.890;4.726;2023-10-31T12:31:44;7.60;;;5.13;;
8803;SDS011;4438;50.890;4.726;2023-10-31T12:34:10;12.13;;;6.40;;
8803;SDS011;4438;50.890;4.726;2023-10-31T12:36:37;6.23;;;5.07;;
8803;SDS011;4438;50.890;4.726;2023-10-31T12:39:04;6.57;;;4.73;;
8803;SDS011;4438;50.890;4.726;2023-10-31T12:41:31;6.27;;;4.90;;
8803;SDS011;4438;50.890;4.726;2023-10-31T12:43:57;7.37;;;5.23;;
8803;SDS011;4438;50.890;4.726;2023-10-31T12:46:24;6.73;;;4.73;;
8803;SDS011;4438;50.890;4.726;2023-10-31T12:48:51;5.60;;;4.40;;
8803;SDS011;4438;50.890;4.726;2023-10-31T12:51:17;9.63;;;5.57;;
8803;SDS011;4438;50.890;4.726;2023-10-31T12:53:48;8.93;;;4.77;;
8803;SDS011;4438;50.890;4.726;2023-10-31T12:58:59;5.60;;;3.90;;
8803;SDS011;4438;50.890;4.726;2023-10-31T13:01:25;5.53;;;3.80;;
8803;SDS011;4438;50.890;4.726;2023-10-31T13:03:51;4.00;;;3.60;;
8803;SDS011;4438;50.890;4.726;2023-10-31T13:06:18;4.47;;;3.50;;
8803;SDS011;4438;50.890;4.726;2023-10-31T13:08:45;5.00;;;3.30;;
8803;SDS011;4438;50.890;4.726;2023-10-31T13:11:11;5.70;;;3.60;;
8803;SDS011;4438;50.890;4.726;2023-10-31T13:13:39;4.60;;;3.37;;
8803;SDS011;4438;50.890;4.726;2023-10-31T13:16:05;4.27;;;3.50;;
8803;SDS011;4438;50.890;4.726;2023-10-31T13:18:31;4.03;;;3.63;;
8803;SDS011;4438;50.890;4.726;2023-10-31T13:20:57;3.80;;;3.30;;
8803;SDS011;4438;50.890;4.726;2023-10-31T13:23:24;4.53;;;3.00;;
8803;SDS011;4438;50.890;4.726;2023-10-31T13:25:50;3.70;;;3.20;;
8803;SDS011;4438;50.890;4.726;2023-10-31T13:28:16;5.47;;;3.40;;
8803;SDS011;4438;50.890;4.726;2023-10-31T13:30:42;3.90;;;2.70;;
8803;SDS011;4438;50.890;4.726;2023-10-31T13:33:08;4.17;;;3.10;;
8803;SDS011;4438;50.890;4.726;2023-10-31T13:35:34;4.23;;;2.87;;
8803;SDS011;4438;50.890;4.726;2023-10-31T13:38:00;4.30;;;3.17;;
8803;SDS011;4438;50.890;4.726;2023-10-31T13:40:26;4.13;;;3.00;;
8803;SDS011;4438;50.890;4.726;2023-10-31T13:42:52;3.43;;;2.60;;
8803;SDS011;4438;50.890;4.726;2023-10-31T13:45:18;3.03;;;2.67;;
8803;SDS011;4438;50.890;4.726;2023-10-31T13:47:44;3.93;;;3.07;;
8803;SDS011;4438;50.890;4.726;2023-10-31T13:50:11;3.33;;;2.70;;
8803;SDS011;4438;50.890;4.726;2023-10-31T13:52:37;4.40;;;2.93;;
8803;SDS011;4438;50.890;4.726;2023-10-31T13:55:04;4.07;;;2.63;;
8803;SDS011;4438;50.890;4.726;2023-10-31T13:57:30;3.50;;;2.83;;
8803;SDS011;4438;50.890;4.726;2023-10-31T13:59:56;3.57;;;2.90;;
8803;SDS011;4438;50.890;4.726;2023-10-31T14:02:25;4.07;;;2.80;;
8803;SDS011;4438;50.890;4.726;2023-10-31T14:04:53;4.50;;;3.20;;
8803;SDS011;4438;50.890;4.726;2023-10-31T14:07:22;4.57;;;3.27;;
8803;SDS011;4438;50.890;4.726;2023-10-31T14:09:49;5.13;;;3.40;;
8803;SDS011;4438;50.890;4.726;2023-10-31T14:12:15;4.13;;;3.33;;
8803;SDS011;4438;50.890;4.726;2023-10-31T14:14:41;3.70;;;3.40;;
8803;SDS011;4438;50.890;4.726;2023-10-31T14:17:07;4.90;;;3.50;;
8803;SDS011;4438;50.890;4.726;2023-10-31T14:19:33;4.57;;;3.40;;
8803;SDS011;4438;50.890;4.726;2023-10-31T14:22:00;4.60;;;3.47;;
8803;SDS011;4438;50.890;4.726;2023-10-31T14:24:26;4.00;;;3.60;;
8803;SDS011;4438;50.890;4.726;2023-10-31T14:26:53;5.50;;;3.90;;
8803;SDS011;4438;50.890;4.726;2023-10-31T14:29:19;4.00;;;3.60;;
8803;SDS011;4438;50.890;4.726;2023-10-31T14:31:46;6.67;;;3.80;;
8803;SDS011;4438;50.890;4.726;2023-10-31T14:34:12;4.20;;;3.53;;
8803;SDS011;4438;50.890;4.726;2023-10-31T14:36:38;4.17;;;3.53;;
8803;SDS011;4438;50.890;4.726;2023-10-31T14:39:04;5.43;;;3.60;;
8803;SDS011;4438;50.890;4.726;2023-10-31T14:41:30;4.87;;;3.87;;
8803;SDS011;4438;50.890;4.726;2023-10-31T14:43:58;4.03;;;3.63;;
8803;SDS011;4438;50.890;4.726;2023-10-31T14:46:25;3.90;;;3.37;;
8803;SDS011;4438;50.890;4.726;2023-10-31T14:48:52;4.20;;;3.80;;
8803;SDS011;4438;50.890;4.726;2023-10-31T14:51:18;5.33;;;4.07;;
8803;SDS011;4438;50.890;4.726;2023-10-31T14:53:44;4.70;;;4.10;;
8803;SDS011;4438;50.890;4.726;2023-10-31T14:56:10;6.00;;;4.17;;
8803;SDS011;4438;50.890;4.726;2023-10-31T14:58:36;4.73;;;4.33;;
8803;SDS011;4438;50.890;4.726;2023-10-31T15:01:02;7.00;;;4.57;;
8803;SDS011;4438;50.890;4.726;2023-10-31T15:03:29;6.93;;;5.10;;
8803;SDS011;4438;50.890;4.726;2023-10-31T15:05:57;5.20;;;4.70;;
8803;SDS011;4438;50.890;4.726;2023-10-31T15:08:23;5.77;;;5.13;;
8803;SDS011;4438;50.890;4.726;2023-10-31T15:10:50;5.67;;;5.03;;
8803;SDS011;4438;50.890;4.726;2023-10-31T15:13:16;5.47;;;4.90;;